createdAt,value
2023-02-08T00:00:47.107Z,16.60
2023-02-08T00:03:13.842Z,14.70
2023-02-08T00:05:41.123Z,14.82
2023-02-08T00:08:08.154Z,19.02
2023-02-08T00:10:36.223Z,20.13
2023-02-08T00:13:03.194Z,16.75
2023-02-08T00:15:30.352Z,18.85
2023-02-08T00:17:57.106Z,21.33
2023-02-08T00:20:23.930Z,20.23
2023-02-08T00:22:52.573Z,22.40
2023-02-08T00:25:20.209Z,25.67
2023-02-08T00:27:47.462Z,20.40
2023-02-08T00:30:14.320Z,22.33
2023-02-08T00:32:41.425Z,26.75
2023-02-08T00:35:08.328Z,25.98
2023-02-08T00:37:35.778Z,26.90
2023-02-08T00:40:02.716Z,28.23
2023-02-08T00:42:30.336Z,30.45
2023-02-08T00:44:57.447Z,23.48
2023-02-08T00:47:24.953Z,28.08
2023-02-08T00:49:52.471Z,25.10
2023-02-08T00:52:19.603Z,27.33
2023-02-08T00:54:47.240Z,25.83
2023-02-08T00:57:14.731Z,26.52
2023-02-08T00:59:41.976Z,26.88
2023-02-08T01:02:08.837Z,23.75
2023-02-08T01:04:36.421Z,28.60
2023-02-08T01:07:03.313Z,26.83
2023-02-08T01:09:30.438Z,27.45
2023-02-08T01:11:57.483Z,33.30
2023-02-08T01:14:25.032Z,27.33
2023-02-08T01:16:52.109Z,28.35
2023-02-08T01:19:19.147Z,27.92
2023-02-08T01:21:46.665Z,25.73
2023-02-08T01:24:13.742Z,22.73
2023-02-08T01:26:40.697Z,19.98
2023-02-08T01:29:08.372Z,24.60
2023-02-08T01:31:38.697Z,19.27
2023-02-08T01:34:07.224Z,25.20
2023-02-08T01:36:34.571Z,20.65
2023-02-08T01:39:01.900Z,22.27
2023-02-08T01:41:32.909Z,21.15
2023-02-08T01:44:11.798Z,16.55
2023-02-08T01:46:44.380Z,15.32
2023-02-08T01:49:25.312Z,15.40
2023-02-08T01:52:14.458Z,12.05
2023-02-08T01:54:46.590Z,18.35
2023-02-08T01:57:13.706Z,19.65
2023-02-08T01:59:48.497Z,19.75
2023-02-08T02:02:19.660Z,18.17
2023-02-08T02:04:48.020Z,14.18
2023-02-08T02:07:16.284Z,15.45
2023-02-08T02:09:50.444Z,17.13
2023-02-08T02:12:18.180Z,15.60
2023-02-08T02:14:46.069Z,12.38
2023-02-08T02:17:15.319Z,14.85
2023-02-08T02:20:01.952Z,14.35
2023-02-08T02:22:32.096Z,13.00
2023-02-08T02:25:17.304Z,13.65
2023-02-08T02:27:56.370Z,12.65
2023-02-08T02:30:35.071Z,14.90
2023-02-08T02:33:23.828Z,19.75
2023-02-08T02:36:19.004Z,17.10
2023-02-08T02:39:07.852Z,25.67
2023-02-08T02:42:29.426Z,33.03
2023-02-08T02:45:19.178Z,19.05
2023-02-08T02:47:56.086Z,37.15
2023-02-08T02:50:32.158Z,28.05
2023-02-08T02:53:19.666Z,29.27
2023-02-08T02:55:56.272Z,24.77
2023-02-08T02:58:25.207Z,22.10
2023-02-08T03:00:54.582Z,29.90
2023-02-08T03:03:25.254Z,20.90
2023-02-08T03:05:57.341Z,61.35
2023-02-08T03:08:45.109Z,26.92
2023-02-08T03:11:33.135Z,19.30
2023-02-08T03:14:21.032Z,21.02
2023-02-08T03:17:04.577Z,17.70
2023-02-08T03:20:03.302Z,20.85
2023-02-08T03:22:53.322Z,26.60
2023-02-08T03:25:32.918Z,16.25
2023-02-08T03:28:24.801Z,18.80
2023-02-08T03:31:00.628Z,14.70
2023-02-08T03:33:44.306Z,17.40
2023-02-08T03:36:51.551Z,16.30
2023-02-08T03:39:26.261Z,14.38
2023-02-08T03:41:58.865Z,12.73
2023-02-08T03:44:36.815Z,13.90
2023-02-08T03:47:43.360Z,13.30
2023-02-08T03:50:13.424Z,19.33
2023-02-08T03:52:41.086Z,14.10
2023-02-08T03:55:13.769Z,17.80
2023-02-08T03:57:58.672Z,18.85
2023-02-08T04:00:26.236Z,21.02
2023-02-08T04:03:10.912Z,16.60
2023-02-08T04:05:38.216Z,20.10
2023-02-08T04:08:05.159Z,27.23
2023-02-08T04:10:32.394Z,19.38
2023-02-08T04:12:59.759Z,19.90
2023-02-08T04:15:27.428Z,21.23
2023-02-08T04:17:55.384Z,16.80
2023-02-08T04:20:22.126Z,20.38
2023-02-08T04:22:49.439Z,20.35
2023-02-08T04:25:16.527Z,20.35
2023-02-08T04:27:43.878Z,15.90
2023-02-08T04:30:11.353Z,17.83
2023-02-08T04:32:38.178Z,22.77
2023-02-08T04:35:05.685Z,23.88
2023-02-08T04:37:32.779Z,22.20
2023-02-08T04:40:00.159Z,26.25
2023-02-08T04:42:26.926Z,22.00
2023-02-08T04:44:54.044Z,28.48
2023-02-08T04:47:20.788Z,20.30
2023-02-08T04:49:48.100Z,25.60
2023-02-08T04:52:15.413Z,22.65
2023-02-08T04:54:42.750Z,21.75
2023-02-08T04:57:13.896Z,34.30
2023-02-08T04:59:40.891Z,19.65
2023-02-08T05:02:07.664Z,24.45
2023-02-08T05:04:34.648Z,20.05
2023-02-08T05:07:02.197Z,24.63
2023-02-08T05:09:29.041Z,24.70
2023-02-08T05:11:55.809Z,23.63
2023-02-08T05:14:23.132Z,20.85
2023-02-08T05:16:50.272Z,20.92
2023-02-08T05:19:17.030Z,22.50
2023-02-08T05:21:43.788Z,16.27
2023-02-08T05:24:12.958Z,22.95
2023-02-08T05:26:41.073Z,21.13
2023-02-08T05:29:08.247Z,20.83
2023-02-08T05:31:35.639Z,21.35
2023-02-08T05:34:03.035Z,25.98
2023-02-08T05:36:29.789Z,25.00
2023-02-08T05:38:56.905Z,23.90
2023-02-08T05:41:23.641Z,22.35
2023-02-08T05:43:50.847Z,25.20
2023-02-08T05:46:18.127Z,21.20
2023-02-08T05:48:45.093Z,24.10
2023-02-08T05:51:12.300Z,25.60
2023-02-08T05:53:39.447Z,23.73
2023-02-08T05:56:06.538Z,24.85
2023-02-08T05:58:34.295Z,25.88
2023-02-08T06:01:01.581Z,21.13
2023-02-08T06:03:28.378Z,21.25
2023-02-08T06:05:55.568Z,25.60
2023-02-08T06:08:22.369Z,30.23
2023-02-08T06:10:50.564Z,22.25
2023-02-08T06:13:17.395Z,26.15
2023-02-08T06:15:44.749Z,23.90
2023-02-08T06:18:12.496Z,24.80
2023-02-08T06:20:39.680Z,26.40
2023-02-08T06:23:07.193Z,23.13
2023-02-08T06:25:34.011Z,23.90
2023-02-08T06:28:01.388Z,23.80
2023-02-08T06:30:28.154Z,20.42
2023-02-08T06:32:55.104Z,28.08
2023-02-08T06:35:21.860Z,25.58
2023-02-08T06:37:48.669Z,23.60
2023-02-08T06:40:17.858Z,24.15
2023-02-08T06:42:44.638Z,27.52
2023-02-08T06:45:13.654Z,50.42
2023-02-08T06:47:40.594Z,25.45
2023-02-08T06:50:07.993Z,20.58
2023-02-08T06:52:35.507Z,24.77
2023-02-08T06:55:02.730Z,20.73
2023-02-08T06:57:29.526Z,22.67
2023-02-08T06:59:56.260Z,28.88
2023-02-08T07:02:23.135Z,23.80
2023-02-08T07:04:50.558Z,22.55
2023-02-08T07:07:18.534Z,25.67
2023-02-08T07:09:45.819Z,26.67
2023-02-08T07:12:12.765Z,27.58
2023-02-08T07:14:42.303Z,24.38
2023-02-08T07:17:10.298Z,26.85
2023-02-08T07:19:37.144Z,26.42
2023-02-08T07:22:11.108Z,27.13
2023-02-08T07:24:40.358Z,27.02
2023-02-08T07:27:09.713Z,25.27
2023-02-08T07:29:37.265Z,22.67
2023-02-08T07:32:05.718Z,25.08
2023-02-08T07:34:35.530Z,26.40
2023-02-08T07:37:02.401Z,28.05
2023-02-08T07:39:31.454Z,27.20
2023-02-08T07:41:59.638Z,27.48
2023-02-08T07:44:27.066Z,23.05
2023-02-08T07:46:54.987Z,32.22
2023-02-08T07:49:22.317Z,24.98
2023-02-08T07:51:49.447Z,24.58
2023-02-08T07:54:17.960Z,23.77
2023-02-08T07:56:44.824Z,21.38
2023-02-08T07:59:12.031Z,19.17
2023-02-08T08:01:39.435Z,27.83
2023-02-08T08:04:06.272Z,23.35
2023-02-08T08:06:33.583Z,31.77
2023-02-08T08:09:00.766Z,22.65
2023-02-08T08:11:28.232Z,27.48
2023-02-08T08:13:55.459Z,27.30
2023-02-08T08:16:22.721Z,27.98
2023-02-08T08:18:51.233Z,28.33
2023-02-08T08:21:18.090Z,30.40
2023-02-08T08:23:45.002Z,35.63
2023-02-08T08:26:17.476Z,33.63
2023-02-08T08:28:47.247Z,30.80
2023-02-08T08:31:18.207Z,31.63
2023-02-08T08:33:46.063Z,34.28
2023-02-08T08:36:12.936Z,34.42
2023-02-08T08:38:41.112Z,39.95
2023-02-08T08:41:15.333Z,33.30
2023-02-08T08:43:42.207Z,38.92
2023-02-08T08:46:09.773Z,32.50
2023-02-08T08:48:38.312Z,38.20
2023-02-08T08:51:06.145Z,39.58
2023-02-08T08:53:33.623Z,37.65
2023-02-08T08:56:00.645Z,43.95
2023-02-08T08:58:27.916Z,35.17
2023-02-08T09:01:00.162Z,32.15
2023-02-08T09:03:28.522Z,35.53
2023-02-08T09:05:55.576Z,28.92
2023-02-08T09:08:22.481Z,33.92
2023-02-08T09:10:49.489Z,35.00
2023-02-08T09:13:19.629Z,34.22
2023-02-08T09:15:48.760Z,32.88
2023-02-08T09:18:16.009Z,46.28
2023-02-08T09:20:43.416Z,28.42
2023-02-08T09:23:10.499Z,29.63
2023-02-08T09:25:37.942Z,35.13
2023-02-08T09:28:05.417Z,30.15
2023-02-08T09:30:33.058Z,31.83
2023-02-08T09:33:00.188Z,33.97
2023-02-08T09:35:28.093Z,33.40
2023-02-08T09:37:57.640Z,33.75
2023-02-08T09:40:30.283Z,40.67
2023-02-08T09:43:23.421Z,43.53
2023-02-08T09:46:00.528Z,42.47
2023-02-08T09:48:37.543Z,34.53
2023-02-08T09:51:22.969Z,47.25
2023-02-08T09:53:57.222Z,44.42
2023-02-08T09:56:33.543Z,38.95
2023-02-08T09:59:01.944Z,46.80
2023-02-08T10:01:32.234Z,41.90
2023-02-08T10:04:13.066Z,36.53
2023-02-08T10:06:40.365Z,38.17
2023-02-08T10:09:14.448Z,39.42
2023-02-08T10:12:00.001Z,33.33
2023-02-08T10:14:44.166Z,36.95
2023-02-08T10:17:16.700Z,50.85
2023-02-08T10:19:46.606Z,52.05
2023-02-08T10:22:33.999Z,29.88
2023-02-08T10:25:23.629Z,35.65
2023-02-08T10:28:07.237Z,29.42
2023-02-08T10:31:12.809Z,28.10
2023-02-08T10:33:55.546Z,30.25
2023-02-08T10:36:27.194Z,29.67
2023-02-08T10:38:57.613Z,30.15
2023-02-08T10:41:34.018Z,31.83
2023-02-08T10:44:18.296Z,30.38
2023-02-08T10:47:10.242Z,38.65
2023-02-08T10:49:53.512Z,35.90
2023-02-08T10:52:20.316Z,49.22
2023-02-08T10:54:49.773Z,39.08
2023-02-08T10:57:26.015Z,33.47
2023-02-08T11:00:11.784Z,27.55
2023-02-08T11:02:43.011Z,62.03
2023-02-08T11:05:12.542Z,48.85
2023-02-08T11:07:41.975Z,35.33
2023-02-08T11:10:23.549Z,35.92
2023-02-08T11:12:59.809Z,32.55
2023-02-08T11:15:45.806Z,44.72
2023-02-08T11:18:27.785Z,34.17
2023-02-08T11:21:02.445Z,36.05
2023-02-08T11:23:39.716Z,41.88
2023-02-08T11:26:18.360Z,37.25
2023-02-08T11:28:58.385Z,54.28
2023-02-08T11:31:28.354Z,33.88
2023-02-08T11:34:03.955Z,37.42
2023-02-08T11:36:33.529Z,37.90
2023-02-08T11:39:21.625Z,37.42
2023-02-08T11:41:51.280Z,44.30
2023-02-08T11:44:29.291Z,41.42
2023-02-08T11:46:59.936Z,50.85
2023-02-08T11:49:37.806Z,45.90
2023-02-08T11:52:25.882Z,42.10
2023-02-08T11:54:54.107Z,38.17
2023-02-08T11:57:23.680Z,47.33
2023-02-08T11:59:52.903Z,46.55
2023-02-08T12:02:39.233Z,61.13
2023-02-08T12:05:14.991Z,59.63
2023-02-08T12:07:59.685Z,49.38
2023-02-08T12:10:33.392Z,49.70
2023-02-08T12:13:35.608Z,39.72
2023-02-08T12:16:34.511Z,45.15
2023-02-08T12:19:28.759Z,39.83
2023-02-08T12:22:10.871Z,45.35
2023-02-08T12:25:02.665Z,38.53
2023-02-08T12:27:35.896Z,31.08
2023-02-08T12:30:17.296Z,56.85
2023-02-08T12:32:57.247Z,47.15
2023-02-08T12:35:57.282Z,41.70
2023-02-08T12:39:18.522Z,48.00
2023-02-08T12:42:07.743Z,51.00
2023-02-08T12:44:56.510Z,52.45
2023-02-08T12:47:35.126Z,46.20
2023-02-08T12:50:32.238Z,40.75
2023-02-08T12:53:07.381Z,54.58
2023-02-08T12:55:45.022Z,43.78
2023-02-08T12:58:30.622Z,42.33
2023-02-08T13:01:30.939Z,42.20
2023-02-08T13:04:22.536Z,40.22
2023-02-08T13:07:03.257Z,44.58
2023-02-08T13:09:55.782Z,41.83
2023-02-08T13:12:49.638Z,44.50
2023-02-08T13:15:30.965Z,39.88
2023-02-08T13:18:02.790Z,40.92
2023-02-08T13:20:52.462Z,51.20
2023-02-08T13:23:52.930Z,40.90
2023-02-08T13:26:32.279Z,36.78
2023-02-08T13:29:02.322Z,46.47
2023-02-08T13:31:34.236Z,46.58
2023-02-08T13:34:08.357Z,45.67
2023-02-08T13:36:38.437Z,42.17
2023-02-08T13:39:08.953Z,38.97
2023-02-08T13:41:37.101Z,36.50
2023-02-08T13:44:13.647Z,44.58
2023-02-08T13:46:51.016Z,40.95
2023-02-08T13:49:51.542Z,40.95
2023-02-08T13:52:47.455Z,49.08
2023-02-08T13:55:58.216Z,37.88
2023-02-08T13:58:48.654Z,45.03
2023-02-08T14:01:24.770Z,36.40
2023-02-08T14:04:13.219Z,40.65
2023-02-08T14:06:50.213Z,41.67
2023-02-08T14:09:54.902Z,46.08
2023-02-08T14:12:39.960Z,37.55
2023-02-08T14:15:15.578Z,37.13
2023-02-08T14:17:47.618Z,41.85
2023-02-08T14:20:42.264Z,42.15
2023-02-08T14:23:23.582Z,41.10
2023-02-08T14:25:56.619Z,42.65
2023-02-08T14:28:44.449Z,43.22
2023-02-08T14:31:14.818Z,41.00
2023-02-08T14:33:53.844Z,51.53
2023-02-08T14:36:26.613Z,47.42
2023-02-08T14:39:14.914Z,43.55
2023-02-08T14:41:51.296Z,44.22
2023-02-08T14:44:48.980Z,56.47
2023-02-08T14:47:39.115Z,47.55
2023-02-08T14:50:17.463Z,49.92
2023-02-08T14:53:10.721Z,45.40
2023-02-08T14:56:08.742Z,46.25
2023-02-08T14:58:42.566Z,49.45
2023-02-08T15:01:44.335Z,48.72
2023-02-08T15:04:12.697Z,56.15
2023-02-08T15:06:42.016Z,47.15
2023-02-08T15:09:23.499Z,59.92
2023-02-08T15:12:04.498Z,53.50
2023-02-08T15:14:37.283Z,42.50
2023-02-08T15:17:04.271Z,45.05
2023-02-08T15:19:40.567Z,48.92
2023-02-08T15:22:37.820Z,49.05
2023-02-08T15:25:22.836Z,49.97
2023-02-08T15:27:53.102Z,51.47
2023-02-08T15:30:38.679Z,47.83
2023-02-08T15:33:14.820Z,44.75
2023-02-08T15:35:43.344Z,53.85
2023-02-08T15:38:17.303Z,54.03
2023-02-08T15:41:10.284Z,54.45
2023-02-08T15:43:39.219Z,46.15
2023-02-08T15:46:18.194Z,45.25
2023-02-08T15:48:49.147Z,50.05
2023-02-08T15:51:17.389Z,47.33
2023-02-08T15:53:47.060Z,51.90
2023-02-08T15:56:35.843Z,46.15
2023-02-08T15:59:06.588Z,55.92
2023-02-08T16:01:34.468Z,57.85
2023-02-08T16:04:12.573Z,55.65
2023-02-08T16:06:54.989Z,56.35
2023-02-08T16:09:27.493Z,52.58
2023-02-08T16:11:59.358Z,59.70
2023-02-08T16:14:30.258Z,66.75
2023-02-08T16:16:58.959Z,57.33
2023-02-08T16:19:28.958Z,55.03
2023-02-08T16:22:14.767Z,53.75
2023-02-08T16:24:41.633Z,64.25
2023-02-08T16:27:27.560Z,56.45
2023-02-08T16:29:54.893Z,56.88
2023-02-08T16:32:28.999Z,57.90
2023-02-08T16:35:00.158Z,57.75
2023-02-08T16:37:35.702Z,53.50
2023-02-08T16:40:39.821Z,56.55
2023-02-08T16:43:27.649Z,55.65
2023-02-08T16:46:21.436Z,52.33
2023-02-08T16:48:56.259Z,57.17
2023-02-08T16:51:29.759Z,57.40
2023-02-08T16:54:02.588Z,104.00
2023-02-08T16:56:29.525Z,77.07
2023-02-08T16:58:56.333Z,67.28
2023-02-08T17:01:24.588Z,66.88
2023-02-08T17:03:53.070Z,78.15
2023-02-08T17:06:29.834Z,69.78
2023-02-08T17:08:58.050Z,80.25
2023-02-08T17:11:25.300Z,83.95
2023-02-08T17:13:52.851Z,64.60
2023-02-08T17:16:23.486Z,86.10
2023-02-08T17:18:50.856Z,91.00
2023-02-08T17:21:18.041Z,81.22
2023-02-08T17:23:45.738Z,120.57
2023-02-08T17:26:37.844Z,89.18
2023-02-08T17:29:05.623Z,73.03
2023-02-08T17:31:32.678Z,107.55
2023-02-08T17:34:04.445Z,79.50
2023-02-08T17:36:36.702Z,102.97
2023-02-08T17:39:05.965Z,93.18
2023-02-08T17:41:32.992Z,108.85
2023-02-08T17:44:00.548Z,83.38
2023-02-08T17:46:30.455Z,77.20
2023-02-08T17:49:02.081Z,79.22
2023-02-08T17:51:29.949Z,74.25
2023-02-08T17:53:56.960Z,97.25
2023-02-08T17:56:30.367Z,101.38
2023-02-08T17:58:59.321Z,93.10
2023-02-08T18:01:27.328Z,84.18
2023-02-08T18:03:54.638Z,97.13
2023-02-08T18:06:23.886Z,74.03
2023-02-08T18:08:51.646Z,81.55
2023-02-08T18:11:20.980Z,82.60
2023-02-08T18:13:49.749Z,73.57
2023-02-08T18:16:26.573Z,97.07
2023-02-08T18:18:58.492Z,87.75
2023-02-08T18:21:26.572Z,93.35
2023-02-08T18:23:55.462Z,93.88
2023-02-08T18:26:24.238Z,81.28
2023-02-08T18:28:52.197Z,94.60
2023-02-08T18:31:20.627Z,73.10
2023-02-08T18:33:49.256Z,77.32
2023-02-08T18:36:16.774Z,87.53
2023-02-08T18:38:45.755Z,77.65
2023-02-08T18:41:20.295Z,84.65
2023-02-08T18:43:47.642Z,76.50
2023-02-08T18:46:18.424Z,80.18
2023-02-08T18:48:46.550Z,74.57
2023-02-08T18:51:16.911Z,77.68
2023-02-08T18:53:47.605Z,68.78
2023-02-08T18:56:14.987Z,85.55
2023-02-08T18:58:42.247Z,79.47
2023-02-08T19:01:15.115Z,81.63
2023-02-08T19:03:43.244Z,89.85
2023-02-08T19:06:12.895Z,74.07
2023-02-08T19:08:41.654Z,74.78
2023-02-08T19:11:24.626Z,85.80
2023-02-08T19:13:52.802Z,83.60
2023-02-08T19:16:22.111Z,96.75
2023-02-08T19:18:49.508Z,77.95
2023-02-08T19:21:17.824Z,81.38
2023-02-08T19:23:51.806Z,84.82
2023-02-08T19:26:21.674Z,74.10
2023-02-08T19:28:51.766Z,96.10
2023-02-08T19:31:21.661Z,89.13
2023-02-08T19:33:50.470Z,93.93
2023-02-08T19:36:22.866Z,95.88
2023-02-08T19:38:50.251Z,77.18
2023-02-08T19:41:23.954Z,68.95
2023-02-08T19:43:51.594Z,81.55
2023-02-08T19:46:22.816Z,70.93
2023-02-08T19:48:50.973Z,66.30
2023-02-08T19:51:18.523Z,70.45
2023-02-08T19:53:45.774Z,77.70
2023-02-08T19:56:15.135Z,72.10
2023-02-08T19:58:42.264Z,108.15
2023-02-08T20:01:19.266Z,136.55
2023-02-08T20:03:47.564Z,97.45
2023-02-08T20:06:27.176Z,112.97
2023-02-08T20:08:54.459Z,101.03
2023-02-08T20:11:27.404Z,100.75
2023-02-08T20:13:56.490Z,119.85
2023-02-08T20:16:24.530Z,91.88
2023-02-08T20:18:51.524Z,73.68
2023-02-08T20:21:19.253Z,77.90
2023-02-08T20:23:47.397Z,94.53
2023-02-08T20:26:19.597Z,100.82
2023-02-08T20:28:52.349Z,98.47
2023-02-08T20:31:26.706Z,109.50
2023-02-08T20:33:54.552Z,94.28
2023-02-08T20:36:24.761Z,88.32
2023-02-08T20:38:53.162Z,97.85
2023-02-08T20:41:20.975Z,135.80
2023-02-08T20:43:48.067Z,110.93
2023-02-08T20:46:41.323Z,85.25
2023-02-08T20:49:08.639Z,96.97
2023-02-08T20:51:35.647Z,97.57
2023-02-08T20:54:03.637Z,96.82
2023-02-08T20:56:35.910Z,125.90
2023-02-08T20:59:06.713Z,117.53
2023-02-08T21:01:34.948Z,102.50
2023-02-08T21:04:03.230Z,103.60
2023-02-08T21:06:33.261Z,114.53
2023-02-08T21:09:09.617Z,134.80
2023-02-08T21:11:37.090Z,156.18
2023-02-08T21:14:05.364Z,133.48
2023-02-08T21:16:32.959Z,95.50
2023-02-08T21:19:00.289Z,99.13
2023-02-08T21:21:28.522Z,107.85
2023-02-08T21:23:57.813Z,104.78
2023-02-08T21:26:26.600Z,114.65
2023-02-08T21:28:55.608Z,101.38
2023-02-08T21:31:23.757Z,122.13
2023-02-08T21:33:51.806Z,126.07
2023-02-08T21:36:21.870Z,123.63
2023-02-08T21:38:48.896Z,112.47
2023-02-08T21:41:23.279Z,137.75
2023-02-08T21:43:53.037Z,163.20
2023-02-08T21:46:20.539Z,145.45
2023-02-08T21:49:07.825Z,125.55
2023-02-08T21:51:53.440Z,128.65
2023-02-08T21:54:41.470Z,111.78
2023-02-08T21:57:14.771Z,127.13
2023-02-08T21:59:41.911Z,97.43
2023-02-08T22:02:13.488Z,112.72
2023-02-08T22:04:58.940Z,107.15
2023-02-08T22:07:26.644Z,131.27
2023-02-08T22:09:54.245Z,157.88
2023-02-08T22:12:22.983Z,142.82
2023-02-08T22:14:50.184Z,130.75
2023-02-08T22:17:17.081Z,118.05
2023-02-08T22:19:43.997Z,114.30
2023-02-08T22:22:12.384Z,138.98
2023-02-08T22:24:39.306Z,119.03
2023-02-08T22:27:06.717Z,118.40
2023-02-08T22:29:34.771Z,123.38
2023-02-08T22:32:01.760Z,155.68
2023-02-08T22:34:29.223Z,124.20
2023-02-08T22:36:56.015Z,121.10
2023-02-08T22:39:23.063Z,117.35
2023-02-08T22:41:49.951Z,131.32
2023-02-08T22:44:16.822Z,116.50
2023-02-08T22:46:43.651Z,128.23
2023-02-08T22:49:10.531Z,139.35
2023-02-08T22:51:38.009Z,99.03
2023-02-08T22:54:04.991Z,124.47
2023-02-08T22:56:32.006Z,118.22
2023-02-08T22:59:02.490Z,128.65
2023-02-08T23:01:29.400Z,125.80
2023-02-08T23:03:56.751Z,119.55
2023-02-08T23:06:23.489Z,108.65
2023-02-08T23:08:50.996Z,102.95
2023-02-08T23:11:18.570Z,112.97
2023-02-08T23:13:45.459Z,117.85
2023-02-08T23:16:16.934Z,105.15
2023-02-08T23:18:44.252Z,103.15
2023-02-08T23:21:19.381Z,114.63
2023-02-08T23:23:47.592Z,91.85
2023-02-08T23:26:18.130Z,94.20
2023-02-08T23:28:45.632Z,122.25
2023-02-08T23:31:14.413Z,107.30
2023-02-08T23:33:41.993Z,105.70
2023-02-08T23:36:12.434Z,113.60
2023-02-08T23:38:40.114Z,97.80
2023-02-08T23:41:09.691Z,107.45
2023-02-08T23:43:36.970Z,104.28
2023-02-08T23:46:15.667Z,118.32
2023-02-08T23:48:43.074Z,102.13
2023-02-08T23:51:10.404Z,94.50
2023-02-08T23:53:37.773Z,111.65
2023-02-08T23:56:08.034Z,97.95
2023-02-08T23:58:35.750Z,94.15
